Meteo Giornale » Osservazioni meteo Turchia » Carsamba
ore: 13:50 - Osservazioni Meteo Carsamba
Lat. 41° 16' N Lon. 36° 33' E Alt. 5 metri s.l.m.
26 °C
Nuvoloso
Temp. 24 Ore
19 °C
26 °C
Nord/NOvest
16.7 Km/h
Dew point 21 °C
Umidità 73 %
Visibilità 10 Km
Il sole sorge alle ore 06:00
Il sole tramonta alle ore 19:07
| Data e Ora | Cielo e Fenomeni | T °C | DP °C | Um. % | Pres. hPa | Vis. km | Vento km/h | |
|---|---|---|---|---|---|---|---|---|
| Oggi h: 13:50 | Nuvoloso | 26 | 21 | 73 | 1015 | 10 | N/NO 16.7 | |
| Oggi h: 12:50 | Nuvoloso | 26 | 20 | 69 | 1015 | 10 | N 14.8 | |
| Oggi h: 11:50 | Nuvoloso | 26 | 20 | 69 | 1015 | 10 | N/NO 16.7 | |
| Oggi h: 10:50 | Nuvoloso | 26 | 19 | 65 | 1016 | 10 | N/NO 14.8 | |
| Oggi h: 09:50 | Nuvoloso | 26 | 18 | 61 | 1015 | 10 | O/NO 13 | |
| Oggi h: 08:50 | Nuvoloso | 24 | 18 | 69 | 1015 | 10 | SO 7.4 | |
| Oggi h: 07:50 | Nuvoloso | 21 | 19 | 88 | 1015 | 10 | S/SO 7.4 | |
| Oggi h: 06:50 | Nuvoloso | 20 | 18 | 88 | 1015 | 10 | N 5.5 | |
| Oggi h: 05:50 | Nuvoloso | 19 | 18 | 93 | 1015 | 10 | S/SO 7.4 | |
| Oggi h: 04:50 | Nuvoloso | 19 | 18 | 93 | 1015 | 10 | N 5.5 | |
| Oggi h: 03:50 | Nuvoloso | 19 | 18 | 93 | 1015 | 10 | N 5.5 | |
| Oggi h: 02:50 | Molto Nuvoloso | 20 | 18 | 88 | 1015 | 10 | N 1.8 | |
| Oggi h: 01:50 | Molto Nuvoloso | 22 | 18 | 78 | 1015 | 10 | N 5.5 | |
| Oggi h: 00:50 | Nuvoloso | 23 | 19 | 78 | 1015 | 10 | NO 18.5 | |
| Ieri h: 23:50 | Nuvoloso | 23 | 19 | 78 | 1015 | 10 | O/NO 22.2 | |
| Ieri h: 22:50 | Nuvoloso | 23 | 19 | 78 | 1015 | 10 | NO 16.7 | |
| Ieri h: 21:50 | Molto Nuvoloso | 23 | 19 | 78 | 1015 | 10 | O/NO 18.5 | |
| Ieri h: 20:50 | Molto Nuvoloso | 23 | 19 | 78 | 1015 | 10 | NO 22.2 | |
| Ieri h: 19:50 | Molto Nuvoloso | 23 | 19 | 78 | 1015 | 10 | NO 22.2 | |
| Ieri h: 18:50 | Molto Nuvoloso | 23 | 19 | 78 | 1014 | 10 | NO 22.2 | |
| Ieri h: 17:50 | Molto Nuvoloso | 24 | 20 | 78 | 1014 | 10 | N/NO 25.9 | |
| Ieri h: 16:50 | Molto Nuvoloso | 24 | 20 | 78 | 1014 | 10 | N/NO 25.9 | |
| Ieri h: 15:50 | Molto Nuvoloso | 24 | 20 | 78 | 1014 | 10 | N 18.5 | |
| Ieri h: 14:50 | Molto Nuvoloso | 25 | 21 | 78 | 1014 | 10 | N/NO 18.5 | |



